createdAt,value
2023-02-15T00:02:45.205Z,2.57
2023-02-15T00:05:34.516Z,2.13
2023-02-15T00:08:21.958Z,2.10
2023-02-15T00:11:10.251Z,2.17
2023-02-15T00:13:59.595Z,2.37
2023-02-15T00:16:47.245Z,2.40
2023-02-15T00:19:35.422Z,2.50
2023-02-15T00:22:24.567Z,2.37
2023-02-15T00:25:12.849Z,2.57
2023-02-15T00:28:02.194Z,2.30
2023-02-15T00:30:49.865Z,2.63
2023-02-15T00:33:37.433Z,2.07
2023-02-15T00:36:25.339Z,2.60
2023-02-15T00:39:16.543Z,1.83
2023-02-15T00:42:04.238Z,2.17
2023-02-15T00:44:56.507Z,1.90
2023-02-15T00:47:44.257Z,1.37
2023-02-15T00:50:32.503Z,3.10
2023-02-15T00:53:20.398Z,2.17
2023-02-15T00:56:12.459Z,2.27
2023-02-15T00:58:59.769Z,2.17
2023-02-15T01:02:03.130Z,2.17
2023-02-15T01:04:51.244Z,2.00
2023-02-15T01:07:43.965Z,1.70
2023-02-15T01:11:00.155Z,2.27
2023-02-15T01:13:51.141Z,2.60
2023-02-15T01:16:40.278Z,1.73
2023-02-15T01:19:27.686Z,2.30
2023-02-15T01:22:31.146Z,1.63
2023-02-15T01:25:27.912Z,1.73
2023-02-15T01:28:15.911Z,2.50
2023-02-15T01:31:30.994Z,1.43
2023-02-15T01:37:25.670Z,2.17
2023-02-15T01:40:21.738Z,2.23
2023-02-15T01:43:15.608Z,1.47
2023-02-15T01:46:04.265Z,1.80
2023-02-15T01:53:01.148Z,1.23
2023-02-15T01:56:13.789Z,1.50
2023-02-15T01:59:09.623Z,1.10
2023-02-15T02:02:03.988Z,1.73
2023-02-15T02:05:00.002Z,1.60
2023-02-15T02:08:39.836Z,1.57
2023-02-15T02:11:29.151Z,1.80
2023-02-15T02:14:16.620Z,2.23
2023-02-15T02:17:11.753Z,1.73
2023-02-15T02:20:43.412Z,2.13
2023-02-15T02:23:49.361Z,1.63
2023-02-15T02:27:20.586Z,2.30
2023-02-15T02:30:40.330Z,2.03
2023-02-15T02:33:43.352Z,1.63
2023-02-15T02:36:37.870Z,1.47
2023-02-15T02:39:33.067Z,1.80
2023-02-15T02:42:26.747Z,1.77
2023-02-15T02:45:18.480Z,1.43
2023-02-15T02:48:10.018Z,1.47
2023-02-15T02:50:58.206Z,1.70
2023-02-15T02:53:44.842Z,1.40
2023-02-15T02:56:38.313Z,1.07
2023-02-15T02:59:35.833Z,1.60
2023-02-15T03:02:27.118Z,1.53
2023-02-15T03:05:17.301Z,1.40
2023-02-15T03:08:11.064Z,1.60
2023-02-15T03:11:01.796Z,1.43
2023-02-15T03:13:50.839Z,1.40
2023-02-15T03:16:38.550Z,1.50
2023-02-15T03:19:29.514Z,1.33
2023-02-15T03:22:21.187Z,1.87
2023-02-15T03:25:13.680Z,1.60
2023-02-15T03:28:04.603Z,1.20
2023-02-15T03:30:56.745Z,1.50
2023-02-15T03:33:51.776Z,1.43
2023-02-15T03:36:45.790Z,2.00
2023-02-15T03:39:35.990Z,2.00
2023-02-15T03:42:30.376Z,3.33
2023-02-15T03:45:25.150Z,3.03
2023-02-15T03:48:11.988Z,3.23
2023-02-15T03:51:21.444Z,1.80
2023-02-15T03:54:10.960Z,2.70
2023-02-15T03:57:13.152Z,3.27
2023-02-15T04:00:20.141Z,2.70
2023-02-15T04:03:13.577Z,2.23
2023-02-15T04:06:00.828Z,1.37
2023-02-15T04:09:05.203Z,1.60
2023-02-15T04:11:52.057Z,1.33
2023-02-15T04:14:56.806Z,1.20
2023-02-15T04:17:45.231Z,1.47
2023-02-15T04:20:49.470Z,1.70
2023-02-15T04:23:54.032Z,1.07
2023-02-15T04:26:40.938Z,0.97
2023-02-15T04:29:28.854Z,1.70
2023-02-15T04:32:15.543Z,1.20
2023-02-15T04:35:03.565Z,1.03
2023-02-15T04:37:50.369Z,1.23
2023-02-15T04:40:37.146Z,1.37
2023-02-15T04:43:24.174Z,1.07
2023-02-15T04:46:10.839Z,1.67
2023-02-15T04:48:58.342Z,1.23
2023-02-15T04:51:46.891Z,0.70
2023-02-15T04:54:33.790Z,1.00
2023-02-15T04:57:20.604Z,1.40
2023-02-15T05:00:10.147Z,1.23
2023-02-15T05:02:57.418Z,1.40
2023-02-15T05:05:45.291Z,1.30
2023-02-15T05:08:33.772Z,0.80
2023-02-15T05:11:20.812Z,1.00
2023-02-15T05:14:07.811Z,1.30
2023-02-15T05:16:55.126Z,1.10
2023-02-15T05:19:41.767Z,1.70
2023-02-15T05:22:28.745Z,1.57
2023-02-15T05:25:34.882Z,1.43
2023-02-15T05:28:21.920Z,1.83
2023-02-15T05:31:11.903Z,0.83
2023-02-15T05:33:58.771Z,1.20
2023-02-15T05:36:45.595Z,1.17
2023-02-15T05:39:32.665Z,0.97
2023-02-15T05:42:21.050Z,1.13
2023-02-15T05:45:09.160Z,1.40
2023-02-15T05:47:56.206Z,0.83
2023-02-15T05:50:43.021Z,1.40
2023-02-15T05:53:30.436Z,1.30
2023-02-15T05:56:17.654Z,1.13
2023-02-15T05:59:05.782Z,1.40
2023-02-15T06:01:52.672Z,0.97
2023-02-15T06:04:39.621Z,1.30
2023-02-15T06:07:26.450Z,1.00
2023-02-15T06:10:13.961Z,0.80
2023-02-15T06:13:01.137Z,1.30
2023-02-15T06:15:49.148Z,1.20
2023-02-15T06:18:36.399Z,1.07
2023-02-15T06:21:23.144Z,1.00
2023-02-15T06:24:10.734Z,1.00
2023-02-15T06:26:57.495Z,0.90
2023-02-15T06:29:44.537Z,1.00
2023-02-15T06:32:33.099Z,0.97
2023-02-15T06:35:19.947Z,1.10
2023-02-15T06:38:06.517Z,1.27
2023-02-15T06:40:53.290Z,1.00
2023-02-15T06:43:41.072Z,1.27
2023-02-15T06:46:29.327Z,0.90
2023-02-15T06:49:17.628Z,1.00
2023-02-15T06:52:04.856Z,1.83
2023-02-15T06:54:51.615Z,1.27
2023-02-15T06:57:38.479Z,1.47
2023-02-15T07:00:25.457Z,1.13
2023-02-15T07:03:15.035Z,1.43
2023-02-15T07:06:09.219Z,1.00
2023-02-15T07:08:56.260Z,1.07
2023-02-15T07:12:00.854Z,1.07
2023-02-15T07:14:47.755Z,1.23
2023-02-15T07:17:36.539Z,1.07
2023-02-15T07:20:25.156Z,0.90
2023-02-15T07:23:13.292Z,1.27
2023-02-15T07:26:00.088Z,0.83
2023-02-15T07:28:47.121Z,0.50
2023-02-15T07:31:34.064Z,1.30
2023-02-15T07:34:20.681Z,1.27
2023-02-15T07:37:07.637Z,1.30
2023-02-15T07:39:55.889Z,0.90
2023-02-15T07:42:42.327Z,1.10
2023-02-15T07:45:29.688Z,0.80
2023-02-15T07:48:16.644Z,0.87
2023-02-15T07:51:05.022Z,1.80
2023-02-15T07:53:52.773Z,0.90
2023-02-15T07:56:41.047Z,0.93
2023-02-15T07:59:28.382Z,0.83
2023-02-15T08:02:17.510Z,1.13
2023-02-15T08:05:05.138Z,1.30
2023-02-15T08:07:52.257Z,1.07
2023-02-15T08:10:56.255Z,1.40
2023-02-15T08:13:54.700Z,1.10
2023-02-15T08:16:43.135Z,1.40
2023-02-15T08:19:32.933Z,1.40
2023-02-15T08:22:20.305Z,1.50
2023-02-15T08:25:07.545Z,1.20
2023-02-15T08:27:54.733Z,1.50
2023-02-15T08:30:43.171Z,1.63
2023-02-15T08:33:30.542Z,1.47
2023-02-15T08:36:20.014Z,1.17
2023-02-15T08:39:08.312Z,1.42
2023-02-15T08:41:55.445Z,1.30
2023-02-15T08:44:42.382Z,1.10
2023-02-15T08:47:31.081Z,1.10
2023-02-15T08:50:17.901Z,1.52
2023-02-15T08:53:05.069Z,1.08
2023-02-15T08:55:58.239Z,0.90
2023-02-15T08:58:45.220Z,1.17
2023-02-15T09:01:34.152Z,0.93
2023-02-15T09:04:23.689Z,0.90
2023-02-15T09:07:10.724Z,1.33
2023-02-15T09:09:57.845Z,1.20
2023-02-15T09:12:44.909Z,0.80
2023-02-15T09:15:32.149Z,0.90
2023-02-15T09:18:19.295Z,0.90
2023-02-15T09:21:09.863Z,1.10
2023-02-15T09:24:02.089Z,0.88
2023-02-15T09:26:53.082Z,1.02
2023-02-15T09:29:40.338Z,0.77
2023-02-15T09:32:27.818Z,0.90
2023-02-15T09:35:15.009Z,1.00
2023-02-15T09:38:03.302Z,0.80
2023-02-15T09:41:05.951Z,1.05
2023-02-15T09:44:05.546Z,0.88
2023-02-15T09:47:07.972Z,0.90
2023-02-15T09:50:07.356Z,0.85
2023-02-15T09:53:22.465Z,1.67
2023-02-15T09:56:18.627Z,0.85
2023-02-15T09:59:16.902Z,0.73
2023-02-15T10:02:18.394Z,1.20
2023-02-15T10:05:21.928Z,1.05
2023-02-15T10:08:34.113Z,0.93
2023-02-15T10:11:42.929Z,1.10
2023-02-15T10:14:54.625Z,1.00
2023-02-15T10:17:56.933Z,1.05
2023-02-15T10:20:52.201Z,1.05
2023-02-15T10:24:08.827Z,0.70
2023-02-15T10:27:02.053Z,1.05
2023-02-15T10:30:00.430Z,1.13
2023-02-15T10:33:00.423Z,0.70
2023-02-15T10:35:57.196Z,0.82
2023-02-15T10:38:47.022Z,0.85
2023-02-15T10:41:44.778Z,1.00
2023-02-15T10:44:43.979Z,1.33
2023-02-15T10:47:47.153Z,0.82
2023-02-15T10:50:48.704Z,0.95
2023-02-15T10:54:04.530Z,1.17
2023-02-15T10:57:02.573Z,1.05
2023-02-15T11:00:13.883Z,0.80
2023-02-15T11:03:38.950Z,1.02
2023-02-15T11:06:29.557Z,1.80
2023-02-15T11:09:19.336Z,1.20
2023-02-15T11:12:15.785Z,1.30
2023-02-15T11:15:06.357Z,1.30
2023-02-15T11:17:59.571Z,1.00
2023-02-15T11:20:55.495Z,1.13
2023-02-15T11:23:46.645Z,1.15
2023-02-15T11:26:37.112Z,1.10
2023-02-15T11:29:33.498Z,1.27
2023-02-15T11:32:25.341Z,2.83
2023-02-15T11:35:24.842Z,1.30
2023-02-15T11:38:19.633Z,1.10
2023-02-15T11:41:11.882Z,0.90
2023-02-15T11:44:05.791Z,1.20
2023-02-15T11:46:56.727Z,0.73
2023-02-15T11:49:43.828Z,1.10
2023-02-15T11:52:31.180Z,0.85
2023-02-15T11:55:23.362Z,0.80
2023-02-15T11:58:19.010Z,1.10
2023-02-15T12:01:13.898Z,0.80
2023-02-15T12:04:08.277Z,1.00
2023-02-15T12:07:03.408Z,1.42
2023-02-15T12:09:57.330Z,1.15
2023-02-15T12:12:44.014Z,0.77
2023-02-15T12:15:34.108Z,0.90
2023-02-15T12:18:36.615Z,1.05
2023-02-15T12:21:32.527Z,0.80
2023-02-15T12:24:23.294Z,1.10
2023-02-15T12:27:18.766Z,1.08
2023-02-15T12:30:13.622Z,1.95
2023-02-15T12:33:07.897Z,0.90
2023-02-15T12:36:02.028Z,1.10
2023-02-15T12:39:07.212Z,1.02
2023-02-15T12:42:05.183Z,0.90
2023-02-15T12:45:01.428Z,1.25
2023-02-15T12:47:49.012Z,1.00
2023-02-15T12:50:36.117Z,0.90
2023-02-15T12:53:25.200Z,0.90
2023-02-15T12:56:13.606Z,1.13
2023-02-15T12:59:07.698Z,0.80
2023-02-15T13:01:55.945Z,0.70
2023-02-15T13:04:50.768Z,1.00
2023-02-15T13:07:38.800Z,1.02
2023-02-15T13:10:29.480Z,0.90
2023-02-15T13:13:23.735Z,0.93
2023-02-15T13:16:15.506Z,0.90
2023-02-15T13:19:08.249Z,0.90
2023-02-15T13:21:57.802Z,1.63
2023-02-15T13:24:49.277Z,0.90
2023-02-15T13:27:40.616Z,1.00
2023-02-15T13:30:33.783Z,1.00
2023-02-15T13:33:27.555Z,1.13
2023-02-15T13:36:21.708Z,0.90
2023-02-15T13:39:16.501Z,1.02
2023-02-15T13:42:14.637Z,1.13
2023-02-15T13:45:12.349Z,1.00
2023-02-15T13:48:17.539Z,1.23
2023-02-15T13:51:15.107Z,0.90
2023-02-15T13:54:26.636Z,0.90
2023-02-15T13:57:34.549Z,0.90
2023-02-15T14:00:28.116Z,0.90
2023-02-15T14:04:05.243Z,0.90
2023-02-15T14:07:27.264Z,1.00
2023-02-15T14:10:31.583Z,0.85
2023-02-15T14:13:56.300Z,0.90
2023-02-15T14:17:06.289Z,0.85
2023-02-15T14:19:59.842Z,1.00
2023-02-15T14:22:51.952Z,1.20
2023-02-15T14:25:45.013Z,0.90
2023-02-15T14:28:42.358Z,1.20
2023-02-15T14:31:41.982Z,0.90
2023-02-15T14:34:45.726Z,1.20
2023-02-15T14:37:45.321Z,1.10
2023-02-15T14:41:37.534Z,1.30
2023-02-15T14:44:32.313Z,1.00
2023-02-15T14:47:24.319Z,0.90
2023-02-15T14:50:45.107Z,1.08
2023-02-15T14:53:39.435Z,1.08
2023-02-15T14:56:28.612Z,1.35
2023-02-15T14:59:19.221Z,1.00
2023-02-15T15:02:15.904Z,1.48
2023-02-15T15:05:10.573Z,1.23
2023-02-15T15:08:00.932Z,1.35
2023-02-15T15:10:49.462Z,1.13
2023-02-15T15:14:01.523Z,1.10
2023-02-15T15:16:53.823Z,1.00
2023-02-15T15:20:14.781Z,1.20
2023-02-15T15:23:43.530Z,1.20
2023-02-15T15:26:37.940Z,1.23
2023-02-15T15:29:42.711Z,1.23
2023-02-15T15:32:35.563Z,1.47
2023-02-15T15:35:30.487Z,1.07
2023-02-15T15:38:37.676Z,1.20
2023-02-15T15:41:37.776Z,1.20
2023-02-15T15:45:18.585Z,1.20
2023-02-15T15:48:32.042Z,1.13
2023-02-15T15:51:22.301Z,1.33
2023-02-15T15:54:17.489Z,1.73
2023-02-15T15:57:07.575Z,1.30
2023-02-15T15:59:57.244Z,1.67
2023-02-15T16:02:52.486Z,1.30
2023-02-15T16:05:40.573Z,1.60
2023-02-15T16:08:32.826Z,1.20
2023-02-15T16:11:25.444Z,1.50
2023-02-15T16:14:19.120Z,1.00
2023-02-15T16:17:15.682Z,1.20
2023-02-15T16:20:07.298Z,1.00
2023-02-15T16:23:08.523Z,1.23
2023-02-15T16:26:05.032Z,1.50
2023-02-15T16:28:52.800Z,1.30
2023-02-15T16:31:41.458Z,1.10
2023-02-15T16:34:29.193Z,1.30
2023-02-15T16:37:17.909Z,1.27
2023-02-15T16:40:05.337Z,1.50
2023-02-15T16:42:53.116Z,1.23
2023-02-15T16:45:40.211Z,1.33
2023-02-15T16:48:29.636Z,1.60
2023-02-15T16:51:22.772Z,1.30
2023-02-15T16:54:15.626Z,1.63
2023-02-15T16:57:03.691Z,1.47
2023-02-15T16:59:52.388Z,2.10
2023-02-15T17:02:55.669Z,1.57
2023-02-15T17:05:47.801Z,1.60
2023-02-15T17:08:38.009Z,1.13
2023-02-15T17:11:36.577Z,1.80
2023-02-15T17:14:29.082Z,1.73
2023-02-15T17:17:17.631Z,2.57
2023-02-15T17:20:05.362Z,1.57
2023-02-15T17:22:55.112Z,2.03
2023-02-15T17:25:44.255Z,2.40
2023-02-15T17:28:33.861Z,2.00
2023-02-15T17:31:22.827Z,2.47
2023-02-15T17:34:44.647Z,2.40
2023-02-15T17:37:34.790Z,2.70
2023-02-15T17:40:37.288Z,2.23
2023-02-15T17:43:24.473Z,2.90
2023-02-15T17:46:11.822Z,2.63
2023-02-15T17:48:59.361Z,2.20
2023-02-15T17:51:46.451Z,3.10
2023-02-15T17:54:51.113Z,2.10
2023-02-15T17:57:39.882Z,1.40
2023-02-15T18:00:44.595Z,2.53
2023-02-15T18:03:57.900Z,3.17
2023-02-15T18:07:03.045Z,3.07
2023-02-15T18:10:07.449Z,3.30
2023-02-15T18:12:55.788Z,3.13
2023-02-15T18:15:44.561Z,2.30
2023-02-15T18:18:31.357Z,2.30
2023-02-15T18:21:20.586Z,2.80
2023-02-15T18:24:07.925Z,4.70
2023-02-15T18:26:55.703Z,4.60
2023-02-15T18:29:44.464Z,4.07
2023-02-15T18:32:36.558Z,4.47
2023-02-15T18:35:25.886Z,4.83
2023-02-15T18:38:13.114Z,5.50
2023-02-15T18:41:00.584Z,4.03
2023-02-15T18:43:48.990Z,4.57
2023-02-15T18:46:37.427Z,3.90
2023-02-15T18:49:24.616Z,4.50
2023-02-15T18:52:17.312Z,3.80
2023-02-15T18:55:08.053Z,3.07
2023-02-15T18:57:57.225Z,3.23
2023-02-15T19:00:45.533Z,3.97
2023-02-15T19:03:33.849Z,3.57
2023-02-15T19:06:23.181Z,3.27
2023-02-15T19:09:16.279Z,4.37
2023-02-15T19:12:03.688Z,2.97
2023-02-15T19:14:52.972Z,2.90
2023-02-15T19:17:39.748Z,3.27
2023-02-15T19:20:33.230Z,2.13
2023-02-15T19:23:23.563Z,3.27
2023-02-15T19:26:12.113Z,2.60
2023-02-15T19:29:00.687Z,2.67
2023-02-15T19:31:47.742Z,2.03
2023-02-15T19:34:34.854Z,2.13
2023-02-15T19:37:26.578Z,1.97
2023-02-15T19:40:21.553Z,2.60
2023-02-15T19:43:16.497Z,2.77
2023-02-15T19:46:03.704Z,2.87
2023-02-15T19:48:51.862Z,2.30
2023-02-15T19:51:40.578Z,2.23
2023-02-15T19:54:31.889Z,2.80
2023-02-15T19:57:19.757Z,2.40
2023-02-15T20:00:22.253Z,2.37
2023-02-15T20:03:10.564Z,2.43
2023-02-15T20:05:57.937Z,3.10
2023-02-15T20:08:45.537Z,2.23
2023-02-15T20:11:33.867Z,1.97
2023-02-15T20:14:21.175Z,2.27
2023-02-15T20:17:08.413Z,2.07
2023-02-15T20:19:56.235Z,2.07
2023-02-15T20:22:45.422Z,3.03
2023-02-15T20:25:34.236Z,2.10
2023-02-15T20:28:26.980Z,2.60
2023-02-15T20:31:16.595Z,2.53
2023-02-15T20:34:04.289Z,1.77
2023-02-15T20:36:52.571Z,2.20
2023-02-15T20:39:39.321Z,1.90
2023-02-15T20:42:26.410Z,1.60
2023-02-15T20:45:21.308Z,2.23
2023-02-15T20:48:08.461Z,2.20
2023-02-15T20:50:55.981Z,2.03
2023-02-15T20:53:42.860Z,2.10
2023-02-15T20:56:32.237Z,1.40
2023-02-15T20:59:25.672Z,2.47
2023-02-15T21:02:21.090Z,2.53
2023-02-15T21:05:20.352Z,1.87
2023-02-15T21:08:14.163Z,2.33
2023-02-15T21:11:01.911Z,1.80
2023-02-15T21:13:50.393Z,2.20
2023-02-15T21:16:37.639Z,2.10
2023-02-15T21:19:26.440Z,1.70
2023-02-15T21:22:14.865Z,2.33
2023-02-15T21:25:02.736Z,1.60
2023-02-15T21:27:49.805Z,1.57
2023-02-15T21:30:37.021Z,1.77
2023-02-15T21:33:23.735Z,1.73
2023-02-15T21:36:16.096Z,2.03
2023-02-15T21:39:03.306Z,2.07
2023-02-15T21:42:10.066Z,1.70
2023-02-15T21:45:14.984Z,2.50
2023-02-15T21:48:02.155Z,2.60
2023-02-15T21:51:08.433Z,1.77
2023-02-15T21:53:56.976Z,1.90
2023-02-15T21:56:44.089Z,2.07
2023-02-15T21:59:31.552Z,1.73
2023-02-15T22:02:29.060Z,1.70
2023-02-15T22:05:18.296Z,1.37
2023-02-15T22:08:10.492Z,1.50
2023-02-15T22:10:59.315Z,2.17
2023-02-15T22:13:46.845Z,1.60
2023-02-15T22:16:34.027Z,1.43
2023-02-15T22:19:21.096Z,1.90
2023-02-15T22:22:08.105Z,1.77
2023-02-15T22:24:57.318Z,1.47
2023-02-15T22:27:47.618Z,1.40
2023-02-15T22:30:37.976Z,1.83
2023-02-15T22:33:27.565Z,1.50
2023-02-15T22:36:24.419Z,1.77
2023-02-15T22:39:11.570Z,1.57
2023-02-15T22:41:58.819Z,1.70
2023-02-15T22:44:47.619Z,1.53
2023-02-15T22:47:37.114Z,1.60
2023-02-15T22:50:26.828Z,1.63
2023-02-15T22:53:13.731Z,1.47
2023-02-15T22:56:06.721Z,1.73
2023-02-15T22:58:55.977Z,1.73
2023-02-15T23:01:44.702Z,2.30
2023-02-15T23:04:32.085Z,1.40
2023-02-15T23:07:20.747Z,1.87
2023-02-15T23:10:21.172Z,1.40
2023-02-15T23:13:25.979Z,1.97
2023-02-15T23:16:16.562Z,1.47
2023-02-15T23:19:04.726Z,2.03
2023-02-15T23:21:51.767Z,3.80
2023-02-15T23:24:38.847Z,5.20
2023-02-15T23:27:43.236Z,3.40
2023-02-15T23:30:30.208Z,4.53
2023-02-15T23:33:20.044Z,4.47
2023-02-15T23:36:22.986Z,2.00
2023-02-15T23:39:28.440Z,2.00
2023-02-15T23:42:18.517Z,2.07
2023-02-15T23:45:07.412Z,2.10
2023-02-15T23:48:12.118Z,2.23
2023-02-15T23:51:00.376Z,1.90
2023-02-15T23:53:50.506Z,2.33
2023-02-15T23:56:37.647Z,1.57
2023-02-15T23:59:26.659Z,2.70
